createdAt,value
2022-08-26T00:03:46.684Z,19.71
2022-08-26T00:08:48.637Z,19.47
2022-08-26T00:13:50.663Z,19.24
2022-08-26T00:19:11.094Z,19.27
2022-08-26T00:24:13.453Z,19.44
2022-08-26T00:29:15.914Z,19.54
2022-08-26T00:34:19.386Z,19.50
2022-08-26T00:39:22.351Z,19.47
2022-08-26T00:44:24.718Z,19.42
2022-08-26T00:49:47.906Z,19.33
2022-08-26T00:55:20.139Z,19.30
2022-08-26T01:00:25.935Z,19.24
2022-08-26T01:05:28.884Z,19.08
2022-08-26T01:10:32.590Z,18.97
2022-08-26T01:15:41.837Z,18.89
2022-08-26T01:21:06.420Z,18.74
2022-08-26T01:26:23.115Z,18.58
2022-08-26T01:31:29.920Z,18.43
2022-08-26T01:36:32.185Z,18.46
2022-08-26T01:41:36.151Z,18.43
2022-08-26T01:46:38.246Z,18.34
2022-08-26T01:51:43.925Z,18.34
2022-08-26T01:56:47.049Z,18.31
2022-08-26T02:01:50.151Z,18.16
2022-08-26T02:06:56.542Z,18.08
2022-08-26T02:12:01.665Z,18.14
2022-08-26T02:17:04.391Z,18.25
2022-08-26T02:22:15.792Z,18.33
2022-08-26T02:27:24.650Z,18.18
2022-08-26T02:32:27.123Z,18.16
2022-08-26T02:37:31.096Z,18.14
2022-08-26T02:42:33.238Z,18.12
2022-08-26T02:47:35.422Z,18.06
2022-08-26T02:52:37.415Z,18.03
2022-08-26T02:57:39.969Z,18.03
2022-08-26T03:02:42.029Z,18.11
2022-08-26T03:07:44.312Z,18.19
2022-08-26T03:12:48.259Z,18.19
2022-08-26T03:17:50.513Z,18.21
2022-08-26T03:22:53.211Z,18.19
2022-08-26T03:27:59.532Z,18.12
2022-08-26T03:33:02.453Z,18.12
2022-08-26T03:38:06.792Z,18.09
2022-08-26T03:43:10.260Z,18.05
2022-08-26T03:48:12.687Z,17.98
2022-08-26T03:53:14.775Z,17.95
2022-08-26T03:58:16.772Z,17.87
2022-08-26T04:03:41.459Z,17.79
2022-08-26T04:08:44.784Z,17.75
2022-08-26T04:13:47.207Z,17.75
2022-08-26T04:18:49.759Z,17.83
2022-08-26T04:23:52.043Z,17.95
2022-08-26T04:28:55.237Z,18.10
2022-08-26T04:33:57.245Z,18.31
2022-08-26T04:39:02.329Z,18.46
2022-08-26T04:44:06.022Z,18.63
2022-08-26T04:49:09.309Z,18.78
2022-08-26T04:54:13.805Z,18.98
2022-08-26T04:59:18.781Z,19.23
2022-08-26T05:04:21.482Z,19.55
2022-08-26T05:09:25.125Z,19.80
2022-08-26T05:14:27.665Z,19.93
2022-08-26T05:19:30.531Z,20.13
2022-08-26T05:24:32.662Z,20.29
2022-08-26T05:29:35.389Z,20.46
2022-08-26T05:34:37.737Z,20.99
2022-08-26T05:39:41.254Z,21.60
2022-08-26T05:44:55.619Z,21.96
2022-08-26T05:49:58.682Z,22.13
2022-08-26T05:55:01.960Z,22.29
2022-08-26T06:00:04.740Z,22.40
2022-08-26T06:05:27.858Z,22.47
2022-08-26T06:10:33.020Z,22.44
2022-08-26T06:15:43.492Z,22.46
2022-08-26T06:20:54.571Z,22.61
2022-08-26T06:26:00.505Z,22.82
2022-08-26T06:31:02.708Z,23.08
2022-08-26T06:36:05.001Z,23.14
2022-08-26T06:41:11.557Z,23.28
2022-08-26T06:46:16.861Z,23.44
2022-08-26T06:51:22.437Z,23.63
2022-08-26T06:56:32.885Z,23.76
2022-08-26T07:01:44.207Z,23.92
2022-08-26T07:06:53.902Z,24.10
2022-08-26T07:12:00.331Z,24.23
2022-08-26T07:17:04.137Z,24.30
2022-08-26T07:22:08.670Z,24.40
2022-08-26T07:27:19.340Z,24.65
2022-08-26T07:32:23.982Z,24.84
2022-08-26T07:37:26.869Z,25.05
2022-08-26T07:42:34.043Z,25.09
2022-08-26T07:47:40.096Z,25.07
2022-08-26T07:52:43.137Z,25.25
2022-08-26T07:57:46.531Z,25.36
2022-08-26T08:02:53.332Z,25.47
2022-08-26T08:08:00.853Z,25.72
2022-08-26T08:13:22.922Z,25.93
2022-08-26T08:18:28.753Z,26.13
2022-08-26T08:23:33.838Z,26.27
2022-08-26T08:28:39.562Z,26.37
2022-08-26T08:33:47.165Z,26.55
2022-08-26T08:38:51.058Z,26.75
2022-08-26T08:43:53.921Z,26.88
2022-08-26T08:48:59.929Z,27.04
2022-08-26T08:54:04.514Z,27.20
2022-08-26T08:59:28.565Z,27.40
2022-08-26T09:04:56.347Z,27.63
2022-08-26T09:10:18.281Z,27.82
2022-08-26T09:15:40.107Z,27.97
2022-08-26T09:20:56.705Z,28.24
2022-08-26T09:26:03.812Z,28.46
2022-08-26T09:31:29.997Z,28.62
2022-08-26T09:36:41.164Z,28.77
2022-08-26T09:41:43.488Z,28.85
2022-08-26T09:46:57.267Z,28.99
2022-08-26T09:52:07.078Z,29.07
2022-08-26T09:57:16.424Z,29.15
2022-08-26T10:02:34.474Z,29.16
2022-08-26T10:07:44.563Z,29.31
2022-08-26T10:13:11.216Z,29.43
2022-08-26T10:18:24.221Z,29.58
2022-08-26T10:23:30.895Z,29.65
2022-08-26T10:28:46.133Z,29.85
2022-08-26T10:33:49.997Z,30.12
2022-08-26T10:38:52.774Z,30.17
2022-08-26T10:43:59.625Z,30.13
2022-08-26T10:49:06.857Z,30.17
2022-08-26T10:54:38.529Z,30.38
2022-08-26T10:59:58.926Z,30.42
2022-08-26T11:05:04.037Z,30.54
2022-08-26T11:10:21.215Z,30.75
2022-08-26T11:15:26.778Z,30.65
2022-08-26T11:20:34.664Z,30.58
2022-08-26T11:25:56.253Z,30.65
2022-08-26T11:30:59.666Z,30.84
2022-08-26T11:36:11.522Z,30.94
2022-08-26T11:41:19.474Z,30.98
2022-08-26T11:46:35.231Z,30.84
2022-08-26T11:51:41.905Z,30.79
2022-08-26T11:56:49.016Z,30.83
2022-08-26T12:01:56.051Z,30.92
2022-08-26T12:07:00.515Z,31.04
2022-08-26T12:12:13.641Z,31.11
2022-08-26T12:17:26.811Z,31.09
2022-08-26T12:22:35.590Z,31.00
2022-08-26T12:27:41.524Z,30.88
2022-08-26T12:32:52.830Z,30.99
2022-08-26T12:38:01.910Z,31.02
2022-08-26T12:43:05.544Z,31.15
2022-08-26T12:48:10.367Z,31.27
2022-08-26T12:53:24.765Z,31.23
2022-08-26T12:58:36.162Z,31.21
2022-08-26T13:03:46.632Z,31.26
2022-08-26T13:08:53.434Z,31.21
2022-08-26T13:14:02.425Z,31.29
2022-08-26T13:19:21.632Z,31.32
2022-08-26T13:24:40.504Z,31.41
2022-08-26T13:29:42.584Z,31.35
2022-08-26T13:34:57.638Z,31.34
2022-08-26T13:40:04.345Z,31.36
2022-08-26T13:45:06.791Z,31.41
2022-08-26T13:50:08.958Z,31.40
2022-08-26T13:55:14.711Z,31.32
2022-08-26T14:00:18.270Z,31.37
2022-08-26T14:05:22.767Z,31.46
2022-08-26T14:10:25.398Z,31.45
2022-08-26T14:15:27.817Z,31.41
2022-08-26T14:20:33.262Z,31.45
2022-08-26T14:25:35.333Z,31.43
2022-08-26T14:30:40.570Z,31.45
2022-08-26T14:35:48.879Z,31.46
2022-08-26T14:40:52.573Z,31.32
2022-08-26T14:45:54.888Z,31.19
2022-08-26T14:51:00.241Z,31.19
2022-08-26T14:56:05.271Z,31.18
2022-08-26T15:01:15.858Z,31.16
2022-08-26T15:06:29.060Z,31.13
2022-08-26T15:11:31.167Z,31.08
2022-08-26T15:16:36.832Z,31.08
2022-08-26T15:21:39.184Z,31.01
2022-08-26T15:26:41.400Z,30.97
2022-08-26T15:31:48.472Z,30.97
2022-08-26T15:36:54.598Z,30.89
2022-08-26T15:41:59.256Z,30.89
2022-08-26T15:47:01.246Z,30.82
2022-08-26T15:52:05.467Z,30.62
2022-08-26T15:57:19.767Z,30.46
2022-08-26T16:02:31.799Z,30.40
2022-08-26T16:07:40.198Z,30.26
2022-08-26T16:12:42.881Z,30.15
2022-08-26T16:17:48.662Z,30.06
2022-08-26T16:22:52.078Z,29.96
2022-08-26T16:27:59.718Z,29.86
2022-08-26T16:33:08.329Z,29.73
2022-08-26T16:38:15.333Z,29.57
2022-08-26T16:43:43.991Z,29.45
2022-08-26T16:48:48.048Z,29.23
2022-08-26T16:54:01.656Z,29.27
2022-08-26T16:59:16.757Z,29.53
2022-08-26T17:04:23.980Z,29.56
2022-08-26T17:09:32.188Z,29.39
2022-08-26T17:14:34.924Z,29.13
2022-08-26T17:19:46.748Z,28.67
2022-08-26T17:24:58.947Z,28.08
2022-08-26T17:30:01.505Z,27.59
2022-08-26T17:35:04.931Z,27.17
2022-08-26T17:40:12.103Z,26.81
2022-08-26T17:45:14.659Z,26.52
2022-08-26T17:50:17.928Z,26.23
2022-08-26T17:55:20.069Z,25.94
2022-08-26T18:00:26.061Z,25.73
2022-08-26T18:05:29.411Z,25.51
2022-08-26T18:10:31.303Z,25.33
2022-08-26T18:15:33.471Z,25.16
2022-08-26T18:20:39.980Z,24.98
2022-08-26T18:25:43.727Z,24.79
2022-08-26T18:30:47.607Z,24.59
2022-08-26T18:35:49.467Z,24.38
2022-08-26T18:40:52.041Z,24.18
2022-08-26T18:46:08.483Z,23.97
2022-08-26T18:51:19.112Z,23.80
2022-08-26T18:56:21.677Z,23.70
2022-08-26T19:01:27.352Z,23.56
2022-08-26T19:06:32.847Z,23.40
2022-08-26T19:11:37.202Z,23.25
2022-08-26T19:16:43.155Z,23.11
2022-08-26T19:21:48.639Z,23.04
2022-08-26T19:26:59.435Z,22.95
2022-08-26T19:32:02.996Z,22.79
2022-08-26T19:37:05.600Z,22.61
2022-08-26T19:42:21.300Z,22.43
2022-08-26T19:47:23.979Z,22.25
2022-08-26T19:52:30.157Z,22.08
2022-08-26T19:57:34.030Z,21.94
2022-08-26T20:02:36.750Z,21.79
2022-08-26T20:07:39.001Z,21.68
2022-08-26T20:12:41.949Z,21.52
2022-08-26T20:17:44.464Z,21.27
2022-08-26T20:22:46.947Z,21.11
2022-08-26T20:27:50.792Z,21.06
2022-08-26T20:32:53.149Z,21.06
2022-08-26T20:37:55.248Z,21.09
2022-08-26T20:42:57.420Z,21.14
2022-08-26T20:47:59.759Z,21.19
2022-08-26T20:53:01.821Z,21.19
2022-08-26T20:58:04.734Z,21.04
2022-08-26T21:03:07.440Z,20.59
2022-08-26T21:08:09.780Z,20.29
2022-08-26T21:13:14.270Z,20.06
2022-08-26T21:18:16.303Z,19.97
2022-08-26T21:23:21.191Z,19.94
2022-08-26T21:28:24.250Z,19.91
2022-08-26T21:33:28.337Z,19.82
2022-08-26T21:38:36.347Z,19.72
2022-08-26T21:43:43.198Z,19.68
2022-08-26T21:48:51.207Z,19.79
2022-08-26T21:53:56.512Z,19.67
2022-08-26T21:59:00.216Z,19.26
2022-08-26T22:04:08.432Z,18.77
2022-08-26T22:09:11.835Z,18.59
2022-08-26T22:14:15.588Z,18.70
2022-08-26T22:19:26.186Z,18.66
2022-08-26T22:24:40.313Z,18.75
2022-08-26T22:29:50.625Z,18.94
2022-08-26T22:34:55.803Z,18.99
2022-08-26T22:40:08.260Z,18.88
2022-08-26T22:45:14.065Z,18.80
2022-08-26T22:50:25.611Z,18.79
2022-08-26T22:55:27.516Z,18.68
2022-08-26T23:00:34.156Z,18.41
2022-08-26T23:05:38.337Z,18.26
2022-08-26T23:10:46.290Z,18.33
2022-08-26T23:15:48.499Z,18.45
2022-08-26T23:20:51.527Z,18.58
2022-08-26T23:25:54.702Z,18.65
2022-08-26T23:30:57.737Z,18.56
2022-08-26T23:36:06.770Z,18.36
2022-08-26T23:41:11.508Z,18.21
2022-08-26T23:46:15.021Z,18.19
2022-08-26T23:51:59.280Z,18.19
2022-08-26T23:57:03.464Z,18.08
